LTBV

Imsık Airport

Turkey
TAF LTBV 170140Z 1703/1712 VRB02KT CAVOK
Issued Valid From Valid To
Jan-17 @ 01:40 UTC
(3 hours ago)
Jan-17 @ 03:00 UTC
(2 hours ago)
Jan-17 @ 12:00 UTC
(in 7 hours)
Jan-17 @ 03:00 to Jan-17 @ 12:00
TAF LTBV 170140Z 1703/1712 VRB02KT CAVOK
Wind Visibility Clouds Conditions
Variable at 2 knots 10,000+ meters
  • No significant clouds
TAF LTBV 170140Z 1703/1712 VRB02KT CAVOK
Issued Jan-17 @ 01:40 UTC
(3 hours ago)
Valid From Jan-17 @ 03:00 UTC
(2 hours ago)
Valid To Jan-17 @ 12:00 UTC
(in 7 hours)
Jan-17 @ 03:00 - Jan-17 @ 12:00
Wind Visibility
Variable at 2 knots 10,000+ meters
Clouds
  • No significant clouds
Conditions